Latest METAR for ESKM

Raw:

2021/04/19 14:20 ESKM 191420Z 10008KT CAVOK 16/M03 Q1025

Decoded:
Siljan / Mora, Sweden (ESKM) 60-58N 014-31E
Apr 19, 2021 - 10:20 AM EDT / 2021.04.19 1420 UTC
Wind: from the E (100 degrees) at 9 MPH (8 KT):0
Visibility: greater than 7 mile(s):0
Temperature: 60 F (16 C)
Dew Point: 26 F (-3 C)
Relative Humidity: 26%
Pressure (altimeter): 30.27 in. Hg (1025 hPa)
ob: ESKM 191420Z 10008KT CAVOK 16/M03 Q1025
cycle: 14

Back